createdAt,value
2022-10-21T00:00:05.555Z,63131.69
2022-10-21T00:02:41.404Z,98355.59
2022-10-21T00:05:09.753Z,98368.84
2022-10-21T00:07:38.027Z,98359.06
2022-10-21T00:10:08.862Z,98341.13
2022-10-21T00:12:37.829Z,98341.91
2022-10-21T00:15:08.451Z,98345.22
2022-10-21T00:17:39.478Z,98346.19
2022-10-21T00:20:09.263Z,98353.38
2022-10-21T00:22:37.554Z,98353.44
2022-10-21T00:25:06.344Z,98362.06
2022-10-21T00:27:34.520Z,98355.41
2022-10-21T00:30:02.669Z,98351.75
2022-10-21T00:32:32.005Z,98353.84
2022-10-21T00:34:59.978Z,98344.97
2022-10-21T00:37:30.132Z,98332.19
2022-10-21T00:39:58.135Z,98335.81
2022-10-21T00:42:31.359Z,98335.25
2022-10-21T00:45:16.980Z,98331.66
2022-10-21T00:47:50.509Z,98327.91
2022-10-21T00:50:22.790Z,98323.94
2022-10-21T00:52:50.805Z,98316.25
2022-10-21T00:55:18.962Z,98309.47
2022-10-21T00:57:47.332Z,98311.13
2022-10-21T01:00:15.704Z,98320.78
2022-10-21T01:02:43.709Z,98318.06
2022-10-21T01:05:13.654Z,98322.13
2022-10-21T01:07:41.763Z,98320.09
2022-10-21T01:10:09.981Z,98320.09
2022-10-21T01:12:45.343Z,98320.75
2022-10-21T01:15:15.284Z,98327.50
2022-10-21T01:17:49.039Z,98319.03
2022-10-21T01:20:40.915Z,98307.72
2022-10-21T01:23:22.161Z,98300.59
2022-10-21T01:26:04.258Z,98298.53
2022-10-21T01:28:41.379Z,98294.38
2022-10-21T01:31:13.874Z,98297.16
2022-10-21T01:33:43.347Z,98290.03
2022-10-21T01:36:24.872Z,98284.34
2022-10-21T01:39:00.742Z,98278.63
2022-10-21T01:41:30.403Z,98260.91
2022-10-21T01:44:03.298Z,98249.16
2022-10-21T01:46:35.512Z,98232.44
2022-10-21T01:49:05.253Z,98239.97
2022-10-21T01:51:33.471Z,98235.41
2022-10-21T01:54:03.889Z,98234.03
2022-10-21T01:56:32.948Z,98226.81
2022-10-21T01:59:01.700Z,98220.53
2022-10-21T02:01:30.344Z,98226.59
2022-10-21T02:04:02.603Z,98219.72
2022-10-21T02:06:30.600Z,98217.75
2022-10-21T02:09:01.048Z,98217.94
2022-10-21T02:11:35.237Z,98206.19
2022-10-21T02:14:04.464Z,98198.47
2022-10-21T02:16:33.755Z,98201.53
2022-10-21T02:19:03.057Z,98194.09
2022-10-21T02:21:34.123Z,98189.22
2022-10-21T02:24:06.138Z,98187.31
2022-10-21T02:26:34.499Z,98176.81
2022-10-21T02:29:02.506Z,98173.59
2022-10-21T02:31:37.700Z,98168.28
2022-10-21T02:34:11.187Z,98167.59
2022-10-21T02:36:41.291Z,98160.13
2022-10-21T02:39:13.499Z,98150.97
2022-10-21T02:41:43.111Z,98141.66
2022-10-21T02:44:11.280Z,98133.44
2022-10-21T02:46:40.884Z,98130.34
2022-10-21T02:49:10.699Z,98125.25
2022-10-21T02:51:38.747Z,98124.44
2022-10-21T02:54:06.667Z,98113.03
2022-10-21T02:56:35.317Z,98111.03
2022-10-21T02:59:03.335Z,98110.75
2022-10-21T03:01:33.698Z,98103.53
2022-10-21T03:04:01.677Z,98090.94
2022-10-21T03:06:30.988Z,98100.38
2022-10-21T03:08:59.008Z,98100.56
2022-10-21T03:11:26.970Z,98100.22
2022-10-21T03:13:54.942Z,98080.94
2022-10-21T03:16:22.956Z,98076.06
2022-10-21T03:18:50.950Z,98079.88
2022-10-21T03:21:18.986Z,98075.44
2022-10-21T03:23:48.322Z,98075.81
2022-10-21T03:26:16.277Z,98071.03
2022-10-21T03:28:44.231Z,98069.16
2022-10-21T03:31:12.167Z,98074.38
2022-10-21T03:33:40.140Z,98083.00
2022-10-21T03:36:08.284Z,98065.75
2022-10-21T03:38:38.352Z,98060.06
2022-10-21T03:41:07.759Z,98056.63
2022-10-21T03:43:35.703Z,98058.53
2022-10-21T03:46:05.926Z,98054.63
2022-10-21T03:48:33.902Z,98047.56
2022-10-21T03:51:01.837Z,98052.75
2022-10-21T03:53:44.722Z,98059.16
2022-10-21T03:56:14.407Z,98054.56
2022-10-21T03:58:42.822Z,98054.31
2022-10-21T04:01:14.005Z,98046.63
2022-10-21T04:03:42.450Z,98033.56
2022-10-21T04:06:10.572Z,98052.13
2022-10-21T04:08:38.625Z,98041.81
2022-10-21T04:11:06.736Z,98059.78
2022-10-21T04:13:36.223Z,98057.03
2022-10-21T04:16:05.937Z,98066.59
2022-10-21T04:18:34.293Z,98048.19
2022-10-21T04:21:02.543Z,98057.38
2022-10-21T04:23:30.518Z,98060.66
2022-10-21T04:25:58.475Z,98059.06
2022-10-21T04:28:26.452Z,98055.28
2022-10-21T04:30:55.804Z,98052.00
2022-10-21T04:33:24.089Z,98046.97
2022-10-21T04:35:52.172Z,98052.44
2022-10-21T04:38:20.137Z,98051.19
2022-10-21T04:40:48.102Z,98027.19
2022-10-21T04:43:16.029Z,98037.56
2022-10-21T04:45:43.970Z,98033.84
2022-10-21T04:48:13.656Z,98026.47
2022-10-21T04:50:41.996Z,98025.41
2022-10-21T04:53:10.003Z,98022.78
2022-10-21T04:55:40.186Z,98005.38
2022-10-21T04:58:08.152Z,98000.22
2022-10-21T05:00:36.158Z,97996.38
2022-10-21T05:03:05.242Z,98012.75
2022-10-21T05:05:34.719Z,98013.81
2022-10-21T05:08:02.733Z,98012.41
2022-10-21T05:10:31.038Z,98011.66
2022-10-21T05:12:59.433Z,98020.63
2022-10-21T05:15:27.543Z,98019.00
2022-10-21T05:17:57.942Z,98016.00
2022-10-21T05:20:25.939Z,98022.53
2022-10-21T05:22:55.407Z,98022.78
2022-10-21T05:25:25.536Z,98013.81
2022-10-21T05:27:53.513Z,98012.47
2022-10-21T05:30:21.464Z,98012.44
2022-10-21T05:32:49.406Z,98012.72
2022-10-21T05:35:17.504Z,98022.53
2022-10-21T05:37:45.506Z,98017.09
2022-10-21T05:40:14.870Z,98026.91
2022-10-21T05:42:45.621Z,98022.25
2022-10-21T05:45:15.934Z,98026.88
2022-10-21T05:47:44.199Z,98023.88
2022-10-21T05:50:13.043Z,98025.53
2022-10-21T05:52:41.625Z,98024.44
2022-10-21T05:55:12.165Z,98024.44
2022-10-21T05:57:43.046Z,98016.56
2022-10-21T06:00:14.099Z,98014.06
2022-10-21T06:02:42.223Z,98016.00
2022-10-21T06:05:10.373Z,98007.53
2022-10-21T06:07:38.543Z,97993.91
2022-10-21T06:10:07.157Z,97997.75
2022-10-21T06:12:35.173Z,97996.09
2022-10-21T06:15:04.876Z,98003.75
2022-10-21T06:17:32.871Z,98001.03
2022-10-21T06:20:01.689Z,98013.53
2022-10-21T06:22:29.677Z,98006.47
2022-10-21T06:24:57.750Z,98002.91
2022-10-21T06:27:26.159Z,97984.69
2022-10-21T06:29:54.184Z,97987.13
2022-10-21T06:32:23.513Z,97997.47
2022-10-21T06:34:51.518Z,98014.06
2022-10-21T06:37:19.473Z,98018.47
2022-10-21T06:39:47.481Z,98014.91
2022-10-21T06:42:15.742Z,98011.88
2022-10-21T06:44:48.630Z,98022.00
2022-10-21T06:47:17.134Z,98029.91
2022-10-21T06:49:46.476Z,98045.69
2022-10-21T06:52:16.946Z,98069.09
2022-10-21T06:54:45.070Z,98097.72
2022-10-21T06:57:13.126Z,98120.88
2022-10-21T06:59:41.095Z,98102.22
2022-10-21T07:02:10.017Z,98103.06
2022-10-21T07:04:37.961Z,98097.22
2022-10-21T07:07:09.672Z,98085.34
2022-10-21T07:09:37.789Z,98069.56
2022-10-21T07:12:06.158Z,98072.34
2022-10-21T07:14:34.215Z,98068.03
2022-10-21T07:17:02.237Z,98070.19
2022-10-21T07:19:30.246Z,98054.38
2022-10-21T07:21:58.244Z,98043.22
2022-10-21T07:24:27.589Z,98052.50
2022-10-21T07:26:55.577Z,98047.00
2022-10-21T07:29:23.585Z,98038.06
2022-10-21T07:31:51.556Z,98040.25
2022-10-21T07:34:19.664Z,98039.69
2022-10-21T07:36:52.460Z,98048.69
2022-10-21T07:39:24.194Z,98066.16
2022-10-21T07:41:54.455Z,98069.16
2022-10-21T07:44:23.526Z,98077.56
2022-10-21T07:46:52.110Z,98081.66
2022-10-21T07:49:22.765Z,98079.78
2022-10-21T07:51:51.082Z,98068.56
2022-10-21T07:54:20.231Z,98063.94
2022-10-21T07:56:49.740Z,98067.22
2022-10-21T07:59:19.911Z,98062.59
2022-10-21T08:04:22.955Z,98049.25
2022-10-21T08:06:51.271Z,98050.59
2022-10-21T08:09:19.369Z,98036.97
2022-10-21T08:11:47.487Z,98045.16
2022-10-21T08:14:15.801Z,98057.03
2022-10-21T08:16:45.190Z,98066.28
2022-10-21T08:19:18.121Z,98073.91
2022-10-21T08:21:46.117Z,98076.13
2022-10-21T08:24:14.195Z,98079.09
2022-10-21T08:26:42.228Z,98082.63
2022-10-21T08:29:12.387Z,98094.09
2022-10-21T08:31:40.738Z,98104.97
2022-10-21T08:34:10.194Z,98113.28
2022-10-21T08:36:38.790Z,98117.28
2022-10-21T08:39:06.847Z,98127.31
2022-10-21T08:41:44.262Z,98114.81
2022-10-21T08:44:25.107Z,98117.31
2022-10-21T08:46:55.382Z,98138.69
2022-10-21T08:49:30.884Z,98135.81
2022-10-21T08:52:03.269Z,98117.47
2022-10-21T08:54:35.309Z,98132.88
2022-10-21T08:57:05.231Z,98154.34
2022-10-21T08:59:34.217Z,98125.31
2022-10-21T09:02:04.623Z,98161.97
2022-10-21T09:04:40.326Z,98178.47
2022-10-21T09:07:13.000Z,98167.44
2022-10-21T09:09:44.986Z,98169.38
2022-10-21T09:12:16.799Z,98147.72
2022-10-21T09:14:58.457Z,98162.34
2022-10-21T09:17:35.487Z,98170.25
2022-10-21T09:20:10.424Z,98173.00
2022-10-21T09:22:45.746Z,98182.78
2022-10-21T09:25:19.585Z,98180.84
2022-10-21T09:27:56.047Z,98197.25
2022-10-21T09:30:25.590Z,63131.69
2022-10-21T09:32:57.188Z,63131.69
2022-10-21T09:35:34.930Z,63131.69
2022-10-21T09:38:06.457Z,63131.69
2022-10-21T09:40:34.934Z,98197.25
2022-10-21T09:43:04.169Z,98197.25
2022-10-21T09:45:33.640Z,98178.69
2022-10-21T09:48:02.979Z,98178.69
2022-10-21T09:53:06.088Z,63131.69
2022-10-21T09:55:34.388Z,63131.69
2022-10-21T09:58:02.968Z,63131.69
2022-10-21T10:00:44.968Z,63131.69
2022-10-21T10:03:13.106Z,63131.69
2022-10-21T10:05:43.842Z,63131.69
2022-10-21T10:08:28.086Z,63131.69
2022-10-21T10:11:02.611Z,63131.69
2022-10-21T10:13:31.597Z,63131.69
2022-10-21T10:16:13.742Z,63131.69
2022-10-21T10:18:42.070Z,63131.69
2022-10-21T10:21:13.515Z,63131.69
2022-10-21T10:23:47.529Z,63131.69
2022-10-21T10:26:27.533Z,63131.69
2022-10-21T10:28:57.902Z,63131.69
2022-10-21T10:31:28.573Z,63131.69
2022-10-21T10:33:58.991Z,63131.69
2022-10-21T10:36:29.246Z,63131.69
2022-10-21T10:39:00.646Z,63131.69
2022-10-21T10:41:33.191Z,63131.69
2022-10-21T10:44:02.892Z,63131.69
2022-10-21T10:46:32.076Z,63131.69
2022-10-21T10:49:05.651Z,63131.69
2022-10-21T10:51:36.928Z,63131.69
2022-10-21T10:54:18.585Z,63131.69
2022-10-21T10:56:51.123Z,63131.69
2022-10-21T10:59:23.555Z,63131.69
2022-10-21T11:01:53.172Z,63131.69
2022-10-21T11:04:26.724Z,98111.53
2022-10-21T11:06:57.653Z,98102.31
2022-10-21T11:09:27.781Z,98103.03
2022-10-21T11:11:58.404Z,98112.97
2022-10-21T11:14:26.907Z,98116.69
2022-10-21T11:17:00.863Z,98123.72
2022-10-21T11:19:36.368Z,98117.69
2022-10-21T11:22:10.191Z,98117.97
2022-10-21T11:24:47.543Z,98120.59
2022-10-21T11:27:19.262Z,98109.75
2022-10-21T11:29:54.524Z,98121.53
2022-10-21T11:32:30.823Z,98126.09
2022-10-21T11:35:01.956Z,98123.16
2022-10-21T11:37:40.457Z,98132.13
2022-10-21T11:40:17.522Z,98127.53
2022-10-21T11:42:47.909Z,98137.41
2022-10-21T11:45:30.456Z,98131.00
2022-10-21T11:48:01.954Z,98128.81
2022-10-21T11:50:35.221Z,98115.88
2022-10-21T11:53:14.669Z,98115.72
2022-10-21T11:55:48.738Z,98115.13
2022-10-21T11:58:24.852Z,98116.84
2022-10-21T12:00:59.628Z,98106.25
2022-10-21T12:03:40.386Z,98114.84
2022-10-21T12:06:19.293Z,98112.94
2022-10-21T12:08:51.813Z,98123.19
2022-10-21T12:11:23.179Z,98116.97
2022-10-21T12:13:53.038Z,98126.19
2022-10-21T12:16:24.081Z,98131.94
2022-10-21T12:18:53.862Z,98133.56
2022-10-21T12:21:24.348Z,98136.31
2022-10-21T12:23:55.643Z,98129.72
2022-10-21T12:26:27.582Z,98124.25
2022-10-21T12:28:59.498Z,98120.78
2022-10-21T12:31:32.127Z,98116.19
2022-10-21T12:34:00.307Z,98127.16
2022-10-21T12:36:39.107Z,98119.75
2022-10-21T12:39:12.571Z,98114.34
2022-10-21T12:41:42.288Z,98114.50
2022-10-21T12:44:17.556Z,98108.91
2022-10-21T12:46:47.250Z,98100.69
2022-10-21T12:49:20.851Z,98090.50
2022-10-21T12:51:53.559Z,98081.88
2022-10-21T12:54:26.625Z,98079.94
2022-10-21T12:57:03.570Z,98086.91
2022-10-21T12:59:33.880Z,98083.50
2022-10-21T13:02:22.397Z,98087.03
2022-10-21T13:04:52.542Z,98082.94
2022-10-21T13:07:34.002Z,98083.75
2022-10-21T13:10:35.339Z,98061.31
2022-10-21T13:13:24.003Z,98071.44
2022-10-21T13:15:53.477Z,98070.56
2022-10-21T13:18:42.187Z,98066.50
2022-10-21T13:21:22.639Z,98060.16
2022-10-21T13:23:52.219Z,98047.44
2022-10-21T13:26:21.963Z,98038.13
2022-10-21T13:28:57.473Z,98029.19
2022-10-21T13:31:29.646Z,98040.84
2022-10-21T13:33:57.914Z,98035.34
2022-10-21T13:36:32.992Z,98042.44
2022-10-21T13:39:03.085Z,98058.09
2022-10-21T13:41:31.745Z,98073.09
2022-10-21T13:44:00.651Z,98072.94
2022-10-21T13:46:32.324Z,98050.09
2022-10-21T13:49:00.739Z,98055.94
2022-10-21T13:51:30.395Z,98059.28
2022-10-21T13:53:59.970Z,98073.63
2022-10-21T13:56:30.375Z,98074.38
2022-10-21T13:58:58.425Z,98079.63
2022-10-21T14:01:28.441Z,98073.91
2022-10-21T14:04:12.247Z,98066.44
2022-10-21T14:06:41.831Z,98063.78
2022-10-21T14:09:19.097Z,98042.94
2022-10-21T14:11:48.648Z,98050.94
2022-10-21T14:14:17.889Z,98047.56
2022-10-21T14:16:49.461Z,98041.06
2022-10-21T14:19:20.805Z,98039.75
2022-10-21T14:21:50.391Z,98038.94
2022-10-21T14:24:26.555Z,98047.19
2022-10-21T14:26:54.878Z,98032.88
2022-10-21T14:29:24.279Z,98056.19
2022-10-21T14:31:52.859Z,98041.38
2022-10-21T14:34:25.652Z,98039.50
2022-10-21T14:37:09.209Z,98048.50
2022-10-21T14:39:40.132Z,98047.28
2022-10-21T14:42:12.770Z,98055.59
2022-10-21T14:44:42.700Z,98049.09
2022-10-21T14:47:17.172Z,98039.44
2022-10-21T14:49:48.329Z,98035.31
2022-10-21T14:52:19.734Z,98040.03
2022-10-21T14:54:49.727Z,98054.19
2022-10-21T14:57:39.421Z,98049.00
2022-10-21T15:00:10.153Z,98050.69
2022-10-21T15:02:39.194Z,98064.88
2022-10-21T15:05:22.329Z,98069.56
2022-10-21T15:07:52.025Z,98072.31
2022-10-21T15:10:22.275Z,98063.00
2022-10-21T15:12:51.357Z,98057.00
2022-10-21T15:15:39.591Z,98059.78
2022-10-21T15:18:11.366Z,98052.66
2022-10-21T15:20:39.557Z,98051.34
2022-10-21T15:23:19.361Z,98057.06
2022-10-21T15:25:51.853Z,98053.53
2022-10-21T15:28:20.655Z,98047.75
2022-10-21T15:30:48.679Z,98048.31
2022-10-21T15:33:16.715Z,98047.19
2022-10-21T15:35:44.736Z,98045.06
2022-10-21T15:38:14.153Z,98046.19
2022-10-21T15:40:42.634Z,98047.47
2022-10-21T15:43:11.508Z,98046.72
2022-10-21T15:45:41.633Z,98041.28
2022-10-21T15:48:10.412Z,98041.53
2022-10-21T15:50:42.451Z,98051.09
2022-10-21T15:53:10.505Z,98047.81
2022-10-21T15:55:41.359Z,98048.66
2022-10-21T15:58:11.098Z,98031.78
2022-10-21T16:00:40.940Z,98027.13
2022-10-21T16:03:09.699Z,98026.31
2022-10-21T16:05:40.317Z,98020.00
2022-10-21T16:08:08.324Z,98023.56
2022-10-21T16:10:37.394Z,98015.34
2022-10-21T16:13:06.740Z,98013.47
2022-10-21T16:15:35.016Z,98017.88
2022-10-21T16:18:04.274Z,98023.81
2022-10-21T16:20:33.511Z,98024.13
2022-10-21T16:23:03.126Z,98035.34
2022-10-21T16:25:31.505Z,98027.16
2022-10-21T16:28:01.866Z,98039.41
2022-10-21T16:30:34.192Z,98044.03
2022-10-21T16:33:02.197Z,98039.72
2022-10-21T16:35:32.533Z,98042.13
2022-10-21T16:38:00.542Z,98050.06
2022-10-21T16:40:31.566Z,98045.69
2022-10-21T16:42:59.619Z,98044.31
2022-10-21T16:45:29.330Z,98047.59
2022-10-21T16:47:59.662Z,98041.03
2022-10-21T16:50:32.235Z,98044.59
2022-10-21T16:53:02.046Z,98047.06
2022-10-21T16:55:32.414Z,98042.69
2022-10-21T16:58:00.457Z,98044.06
2022-10-21T17:00:28.470Z,98067.22
2022-10-21T17:02:58.474Z,98063.16
2022-10-21T17:05:28.079Z,98057.69
2022-10-21T17:07:57.021Z,98061.22
2022-10-21T17:10:25.031Z,98059.31
2022-10-21T17:12:58.618Z,98058.25
2022-10-21T17:15:27.283Z,98056.31
2022-10-21T17:17:55.298Z,98044.31
2022-10-21T17:20:23.293Z,98053.03
2022-10-21T17:22:52.983Z,98067.88
2022-10-21T17:25:22.749Z,98067.72
2022-10-21T17:27:51.068Z,98068.19
2022-10-21T17:30:19.086Z,98068.97
2022-10-21T17:32:47.534Z,98077.19
2022-10-21T17:35:19.305Z,98075.06
2022-10-21T17:37:47.911Z,98064.97
2022-10-21T17:40:19.184Z,98073.44
2022-10-21T17:42:47.570Z,98066.59
2022-10-21T17:45:16.353Z,98064.97
2022-10-21T17:47:46.486Z,98061.41
2022-10-21T17:50:21.010Z,98059.53
2022-10-21T17:52:48.998Z,98058.22
2022-10-21T17:55:23.300Z,98050.25
2022-10-21T17:57:51.271Z,98050.88
2022-10-21T18:00:19.413Z,98052.22
2022-10-21T18:02:47.445Z,98057.59
2022-10-21T18:05:15.834Z,98053.00
2022-10-21T18:07:43.843Z,98051.56
2022-10-21T18:10:12.179Z,98041.50
2022-10-21T18:12:43.975Z,98045.81
2022-10-21T18:15:12.262Z,98046.16
2022-10-21T18:17:40.714Z,98032.06
2022-10-21T18:20:09.803Z,98032.59
2022-10-21T18:22:38.022Z,98028.19
2022-10-21T18:25:06.632Z,98040.09
2022-10-21T18:27:37.581Z,98039.06
2022-10-21T18:30:07.656Z,98033.56
2022-10-21T18:32:35.819Z,98029.81
2022-10-21T18:35:10.666Z,98033.63
2022-10-21T18:37:38.952Z,98019.28
2022-10-21T18:40:10.699Z,98019.19
2022-10-21T18:42:41.825Z,98011.91
2022-10-21T18:45:13.994Z,98006.19
2022-10-21T18:47:42.963Z,98023.03
2022-10-21T18:50:21.523Z,98028.63
2022-10-21T18:52:49.550Z,98019.47
2022-10-21T18:55:17.614Z,98021.44
2022-10-21T18:57:45.596Z,98031.63
2022-10-21T19:00:15.273Z,98026.81
2022-10-21T19:02:43.330Z,98033.78
2022-10-21T19:05:11.395Z,98040.06
2022-10-21T19:07:39.993Z,98044.50
2022-10-21T19:10:08.546Z,98043.91
2022-10-21T19:12:36.602Z,98041.41
2022-10-21T19:15:04.864Z,98043.34
2022-10-21T19:17:34.369Z,98043.34
2022-10-21T19:20:04.729Z,98030.41
2022-10-21T19:22:32.739Z,98029.31
2022-10-21T19:25:00.829Z,98022.19
2022-10-21T19:27:31.863Z,98021.72
2022-10-21T19:29:59.846Z,98014.06
2022-10-21T19:32:27.819Z,98019.28
2022-10-21T19:34:57.122Z,98024.97
2022-10-21T19:37:25.115Z,98019.78
2022-10-21T19:39:53.169Z,98010.81
2022-10-21T19:42:21.169Z,98004.78
2022-10-21T19:44:49.160Z,98011.63
2022-10-21T19:47:17.155Z,98018.72
2022-10-21T19:49:45.113Z,98023.34
2022-10-21T19:52:14.459Z,98027.97
2022-10-21T19:54:42.418Z,98022.00
2022-10-21T19:57:10.405Z,98023.34
2022-10-21T19:59:38.407Z,98019.53
2022-10-21T20:02:06.405Z,98013.56
2022-10-21T20:04:36.467Z,98016.00
2022-10-21T20:07:04.479Z,98027.41
2022-10-21T20:09:36.392Z,98042.97
2022-10-21T20:12:06.827Z,98037.25
2022-10-21T20:14:34.809Z,98041.06
2022-10-21T20:17:02.758Z,98044.06
2022-10-21T20:19:30.736Z,98042.44
2022-10-21T20:22:00.851Z,98050.03
2022-10-21T20:24:28.834Z,98057.94
2022-10-21T20:27:01.286Z,98059.03
2022-10-21T20:29:30.425Z,98055.78
2022-10-21T20:31:58.468Z,98059.31
2022-10-21T20:34:26.477Z,98062.88
2022-10-21T20:36:54.489Z,98062.00
2022-10-21T20:39:22.447Z,98064.75
2022-10-21T20:41:50.495Z,98064.78
2022-10-21T20:44:21.988Z,98069.59
2022-10-21T20:46:50.054Z,98059.84
2022-10-21T20:49:18.073Z,98054.94
2022-10-21T20:51:46.080Z,98059.78
2022-10-21T20:54:15.895Z,98053.78
2022-10-21T20:56:44.415Z,98068.13
2022-10-21T20:59:15.090Z,98074.22
2022-10-21T21:01:45.307Z,98076.84
2022-10-21T21:04:14.396Z,98079.28
2022-10-21T21:06:45.336Z,98076.63
2022-10-21T21:09:37.774Z,98076.69
2022-10-21T21:12:03.592Z,98089.16
2022-10-21T21:14:32.279Z,98083.16
2022-10-21T21:17:01.764Z,98095.13
2022-10-21T21:19:29.774Z,98108.47
2022-10-21T21:21:57.865Z,98109.84
2022-10-21T21:24:25.931Z,98106.69
2022-10-21T21:26:53.932Z,98109.66
2022-10-21T21:29:21.940Z,98117.03
2022-10-21T21:31:49.931Z,98121.94
2022-10-21T21:34:19.259Z,98120.22
2022-10-21T21:36:47.278Z,98124.56
2022-10-21T21:41:48.281Z,98124.03
2022-10-21T21:44:16.238Z,98125.41
2022-10-21T21:46:44.348Z,98128.44
2022-10-21T21:49:12.371Z,98122.44
2022-10-21T21:51:44.049Z,98119.41
2022-10-21T21:54:12.024Z,98103.59
2022-10-21T21:56:40.081Z,98107.41
2022-10-21T22:02:37.321Z,98102.78
2022-10-21T22:05:05.863Z,98089.41
2022-10-21T22:07:34.003Z,98069.84
2022-10-21T22:10:02.019Z,98065.72
2022-10-21T22:12:30.009Z,98079.84
2022-10-21T22:15:09.476Z,98083.19
2022-10-21T22:17:42.942Z,98097.25
2022-10-21T22:20:11.686Z,98098.38
2022-10-21T22:22:39.644Z,98096.19
2022-10-21T22:25:08.706Z,98103.22
2022-10-21T22:27:36.782Z,98100.97
2022-10-21T22:30:08.259Z,98097.31
2022-10-21T22:32:36.782Z,98095.94
2022-10-21T22:35:07.414Z,98096.16
2022-10-21T22:37:35.426Z,98087.50
2022-10-21T22:40:03.559Z,98081.72
2022-10-21T22:42:31.537Z,98084.16
2022-10-21T22:44:59.590Z,98083.00
2022-10-21T22:47:27.519Z,98076.47
2022-10-21T22:49:55.874Z,98065.66
2022-10-21T22:52:25.192Z,98082.38
2022-10-21T22:54:53.142Z,98090.25
2022-10-21T22:57:21.173Z,98101.50
2022-10-21T22:59:53.046Z,98103.78
2022-10-21T23:02:21.446Z,98114.72
2022-10-21T23:04:49.558Z,98125.34
2022-10-21T23:07:17.525Z,98102.94
2022-10-21T23:09:46.834Z,98099.28
2022-10-21T23:12:14.945Z,98131.94
2022-10-21T23:14:42.972Z,98158.03
2022-10-21T23:17:10.994Z,98166.19
2022-10-21T23:19:38.960Z,98168.13
2022-10-21T23:22:07.276Z,98176.81
2022-10-21T23:24:35.310Z,98174.47
2022-10-21T23:27:04.711Z,98179.56
2022-10-21T23:29:32.805Z,98154.16
2022-10-21T23:32:00.746Z,98155.03
2022-10-21T23:34:28.723Z,98162.69
2022-10-21T23:36:57.049Z,98172.13
2022-10-21T23:39:25.044Z,98181.13
2022-10-21T23:41:53.002Z,98177.75
2022-10-21T23:44:22.412Z,98173.31
2022-10-21T23:46:50.438Z,98153.38
2022-10-21T23:49:20.518Z,98140.59
2022-10-21T23:51:48.496Z,98138.78
2022-10-21T23:54:16.474Z,98134.59
2022-10-21T23:56:45.320Z,98131.00
2022-10-21T23:59:13.310Z,98133.16
